createdAt,value
2019-05-03T00:02:28.995Z,45.48
2019-05-03T00:05:32.454Z,45.41
2019-05-03T00:08:08.061Z,45.33
2019-05-03T00:10:42.520Z,45.28
2019-05-03T00:13:15.447Z,45.33
2019-05-03T00:16:09.892Z,45.34
2019-05-03T00:18:42.937Z,45.48
2019-05-03T00:21:15.845Z,45.48
2019-05-03T00:23:48.388Z,45.52
2019-05-03T00:26:22.564Z,45.55
2019-05-03T00:28:56.083Z,45.63
2019-05-03T00:31:28.406Z,45.79
2019-05-03T00:34:05.374Z,45.92
2019-05-03T00:36:52.499Z,45.92
2019-05-03T00:39:38.783Z,45.94
2019-05-03T00:42:11.949Z,45.92
2019-05-03T00:44:44.550Z,45.96
2019-05-03T00:47:16.929Z,45.88
2019-05-03T00:49:49.534Z,45.85
2019-05-03T00:52:22.466Z,45.78
2019-05-03T00:54:55.520Z,45.74
2019-05-03T00:57:32.100Z,45.86
2019-05-03T01:00:04.771Z,45.71
2019-05-03T01:02:37.676Z,45.66
2019-05-03T01:05:11.990Z,45.58
2019-05-03T01:07:44.724Z,45.53
2019-05-03T01:10:17.528Z,45.43
2019-05-03T01:12:52.141Z,45.33
2019-05-03T01:15:31.982Z,45.27
2019-05-03T01:18:07.894Z,45.19
2019-05-03T01:20:42.633Z,45.12
2019-05-03T01:23:15.089Z,45.06
2019-05-03T01:25:48.954Z,45.02
2019-05-03T01:28:21.866Z,45.02
2019-05-03T01:30:55.309Z,45.03
2019-05-03T01:33:27.853Z,45.04
2019-05-03T01:36:02.511Z,45.06
2019-05-03T01:38:34.863Z,45.00
2019-05-03T01:41:07.477Z,44.99
2019-05-03T01:43:41.503Z,44.97
2019-05-03T01:46:14.261Z,44.93
2019-05-03T01:49:12.309Z,44.90
2019-05-03T01:52:03.643Z,44.91
2019-05-03T01:54:36.503Z,44.93
2019-05-03T01:57:09.073Z,44.93
2019-05-03T01:59:42.604Z,44.89
2019-05-03T02:02:41.972Z,44.91
2019-05-03T02:05:42.944Z,44.96
2019-05-03T02:08:15.755Z,45.05
2019-05-03T02:10:48.244Z,45.11
2019-05-03T02:13:42.663Z,45.21
2019-05-03T02:16:15.516Z,45.24
2019-05-03T02:18:48.392Z,45.30
2019-05-03T02:21:21.666Z,45.30
2019-05-03T02:23:54.278Z,45.28
2019-05-03T02:26:26.811Z,45.35
2019-05-03T02:28:59.598Z,45.36
2019-05-03T02:31:33.959Z,45.37
2019-05-03T02:34:06.833Z,45.34
2019-05-03T02:36:42.539Z,45.36
2019-05-03T02:39:15.855Z,45.40
2019-05-03T02:41:51.795Z,45.45
2019-05-03T02:44:26.685Z,45.52
2019-05-03T02:47:15.764Z,45.70
2019-05-03T02:49:51.878Z,45.82
2019-05-03T02:52:37.679Z,45.83
2019-05-03T02:55:15.643Z,45.83
2019-05-03T02:57:46.934Z,45.90
2019-05-03T03:00:25.500Z,45.89
2019-05-03T03:02:57.739Z,45.95
2019-05-03T03:05:30.941Z,45.98
2019-05-03T03:08:06.034Z,46.02
2019-05-03T03:10:39.302Z,46.05
2019-05-03T03:13:16.315Z,46.13
2019-05-03T03:15:51.521Z,46.31
2019-05-03T03:18:25.677Z,46.39
2019-05-03T03:21:01.484Z,46.46
2019-05-03T03:23:41.506Z,46.65
2019-05-03T03:26:33.358Z,46.75
2019-05-03T03:28:57.257Z,46.89
2019-05-03T03:31:59.555Z,46.96
2019-05-03T03:34:39.136Z,47.10
2019-05-03T03:37:15.352Z,47.27
2019-05-03T03:39:48.267Z,47.32
2019-05-03T03:42:25.137Z,47.42
2019-05-03T03:44:57.998Z,47.49
2019-05-03T03:47:35.802Z,47.61
2019-05-03T03:50:09.236Z,47.69
2019-05-03T03:52:45.156Z,47.73
2019-05-03T03:55:17.805Z,47.76
2019-05-03T03:57:50.234Z,47.93
2019-05-03T04:00:25.510Z,48.14
2019-05-03T04:02:57.278Z,48.16
2019-05-03T04:05:29.752Z,48.32
2019-05-03T04:08:05.383Z,48.50
2019-05-03T04:10:37.911Z,48.53
2019-05-03T04:13:12.752Z,48.55
2019-05-03T04:16:09.895Z,48.51
2019-05-03T04:19:05.829Z,48.50
2019-05-03T04:21:37.834Z,48.56
2019-05-03T04:24:10.995Z,48.72
2019-05-03T04:26:45.355Z,48.81
2019-05-03T04:29:18.009Z,48.80
2019-05-03T04:31:50.929Z,48.74
2019-05-03T04:34:26.137Z,48.74
2019-05-03T04:36:58.190Z,48.70
2019-05-03T04:39:30.772Z,48.72
2019-05-03T04:42:06.292Z,48.72
2019-05-03T04:44:37.721Z,48.70
2019-05-03T04:47:10.244Z,48.65
2019-05-03T04:49:45.981Z,48.75
2019-05-03T04:52:17.133Z,48.77
2019-05-03T04:54:56.265Z,48.79
2019-05-03T04:57:39.762Z,48.64
2019-05-03T05:00:05.633Z,48.60
2019-05-03T05:02:39.069Z,48.49
2019-05-03T05:05:12.199Z,48.34
2019-05-03T05:07:45.701Z,48.08
2019-05-03T05:10:18.932Z,48.00
2019-05-03T05:12:52.011Z,47.82
2019-05-03T05:15:26.370Z,47.61
2019-05-03T05:18:15.739Z,47.34
2019-05-03T05:20:52.677Z,47.11
2019-05-03T05:23:25.389Z,46.87
2019-05-03T05:26:08.558Z,46.71
2019-05-03T05:28:51.725Z,46.50
2019-05-03T05:31:25.481Z,46.29
2019-05-03T05:33:58.491Z,46.07
2019-05-03T05:36:31.495Z,45.85
2019-05-03T05:39:05.223Z,45.63
2019-05-03T05:41:37.941Z,45.35
2019-05-03T05:44:10.684Z,45.27
2019-05-03T05:47:01.917Z,45.20
2019-05-03T05:49:51.176Z,45.15
2019-05-03T05:52:25.957Z,44.96
2019-05-03T05:55:26.904Z,44.92
2019-05-03T05:58:08.017Z,45.01
2019-05-03T06:00:45.767Z,45.05
2019-05-03T06:03:18.322Z,45.04
2019-05-03T06:05:51.116Z,44.93
2019-05-03T06:08:35.429Z,44.75
2019-05-03T06:11:17.696Z,44.71
2019-05-03T06:14:05.039Z,44.57
2019-05-03T06:16:45.145Z,44.50
2019-05-03T06:19:51.515Z,44.56
2019-05-03T06:22:31.563Z,44.48
2019-05-03T06:25:17.848Z,44.46
2019-05-03T06:27:50.490Z,44.42
2019-05-03T06:30:45.712Z,44.38
2019-05-03T06:33:18.739Z,44.28
2019-05-03T06:35:51.297Z,44.03
2019-05-03T06:38:24.452Z,43.91
2019-05-03T06:40:57.571Z,43.97
2019-05-03T06:43:30.561Z,43.97
2019-05-03T06:46:05.285Z,43.99
2019-05-03T06:48:40.525Z,44.04
2019-05-03T06:51:19.177Z,44.13
2019-05-03T06:53:50.627Z,44.16
2019-05-03T06:56:24.997Z,44.16
2019-05-03T06:58:56.601Z,44.10
2019-05-03T07:01:35.411Z,44.10
2019-05-03T07:04:19.155Z,44.09
2019-05-03T07:07:13.241Z,43.97
2019-05-03T07:09:55.743Z,43.86
2019-05-03T07:12:31.320Z,43.78
2019-05-03T07:15:05.794Z,43.71
2019-05-03T07:17:38.994Z,43.66
2019-05-03T07:20:11.516Z,43.65
2019-05-03T07:22:44.464Z,43.56
2019-05-03T07:25:16.914Z,43.51
2019-05-03T07:27:49.826Z,43.55
2019-05-03T07:30:24.594Z,43.59
2019-05-03T07:33:02.019Z,43.67
2019-05-03T07:35:35.339Z,43.68
2019-05-03T07:38:08.004Z,43.66
2019-05-03T07:40:40.974Z,43.57
2019-05-03T07:43:14.855Z,43.43
2019-05-03T07:45:47.307Z,43.31
2019-05-03T07:48:19.990Z,43.17
2019-05-03T07:50:54.537Z,43.08
2019-05-03T07:53:26.969Z,43.00
2019-05-03T07:56:27.385Z,42.97
2019-05-03T07:59:04.192Z,42.99
2019-05-03T08:01:41.242Z,43.07
2019-05-03T08:04:15.391Z,43.16
2019-05-03T08:06:48.251Z,43.24
2019-05-03T08:09:21.191Z,43.44
2019-05-03T08:11:54.692Z,43.71
2019-05-03T08:14:31.796Z,43.90
2019-05-03T08:17:05.406Z,44.01
2019-05-03T08:19:38.016Z,44.07
2019-05-03T08:22:11.290Z,44.17
2019-05-03T08:24:44.851Z,44.22
2019-05-03T08:27:17.351Z,44.28
2019-05-03T08:29:49.877Z,44.33
2019-05-03T08:32:39.439Z,44.28
2019-05-03T08:35:35.565Z,44.34
2019-05-03T08:38:08.610Z,44.38
2019-05-03T08:40:47.536Z,44.39
2019-05-03T08:43:20.301Z,44.37
2019-05-03T08:45:55.250Z,44.27
2019-05-03T08:48:27.573Z,44.23
2019-05-03T08:51:00.316Z,44.18
2019-05-03T08:53:35.594Z,44.23
2019-05-03T08:56:07.805Z,44.21
2019-05-03T08:58:40.353Z,44.28
2019-05-03T09:01:14.788Z,44.28
2019-05-03T09:03:47.479Z,44.24
2019-05-03T09:06:20.349Z,44.22
2019-05-03T09:08:56.855Z,44.29
2019-05-03T09:11:34.057Z,44.37
2019-05-03T09:14:05.027Z,44.34
2019-05-03T09:16:37.560Z,44.34
2019-05-03T09:19:10.280Z,44.36
2019-05-03T09:21:42.997Z,44.34
2019-05-03T09:24:15.574Z,44.31
2019-05-03T09:26:48.176Z,44.34
2019-05-03T09:29:20.602Z,44.39
2019-05-03T09:31:55.288Z,44.46
2019-05-03T09:34:27.222Z,44.43
2019-05-03T09:37:00.008Z,44.45
2019-05-03T09:39:32.683Z,44.47
2019-05-03T09:42:05.328Z,44.44
2019-05-03T09:44:37.875Z,44.36
2019-05-03T09:47:10.749Z,44.20
2019-05-03T09:49:45.206Z,44.20
2019-05-03T09:52:18.259Z,44.25
2019-05-03T09:54:54.648Z,44.23
2019-05-03T09:57:26.813Z,44.10
2019-05-03T10:00:00.257Z,44.01
2019-05-03T10:02:34.997Z,43.99
2019-05-03T10:05:07.713Z,43.97
2019-05-03T10:07:41.339Z,43.86
2019-05-03T10:10:15.417Z,43.64
2019-05-03T10:12:48.391Z,43.44
2019-05-03T10:15:44.992Z,43.31
2019-05-03T10:18:17.865Z,43.36
2019-05-03T10:20:50.835Z,43.37
2019-05-03T10:23:44.931Z,43.31
2019-05-03T10:26:17.002Z,43.21
2019-05-03T10:28:49.527Z,43.16
2019-05-03T10:31:25.844Z,43.17
2019-05-03T10:34:05.771Z,43.16
2019-05-03T10:36:38.186Z,43.14
2019-05-03T10:39:11.231Z,43.02
2019-05-03T10:41:45.320Z,43.02
2019-05-03T10:44:18.129Z,42.88
2019-05-03T10:46:50.612Z,42.83
2019-05-03T10:49:24.495Z,42.70
2019-05-03T10:52:01.933Z,42.69
2019-05-03T10:54:35.862Z,42.69
2019-05-03T10:57:15.775Z,42.84
2019-05-03T10:59:48.376Z,42.89
2019-05-03T11:02:34.942Z,42.57
2019-05-03T11:05:08.088Z,42.55
2019-05-03T11:07:40.833Z,42.61
2019-05-03T11:10:14.717Z,42.70
2019-05-03T11:12:47.450Z,42.81
2019-05-03T11:15:20.258Z,42.92
2019-05-03T11:17:54.798Z,42.98
2019-05-03T11:20:45.299Z,43.15
2019-05-03T11:23:18.643Z,43.33
2019-05-03T11:25:51.249Z,43.40
2019-05-03T11:28:26.486Z,43.61
2019-05-03T11:31:02.444Z,43.60
2019-05-03T11:33:37.756Z,43.63
2019-05-03T11:36:31.856Z,43.65
2019-05-03T11:39:05.631Z,43.76
2019-05-03T11:41:40.433Z,43.73
2019-05-03T11:44:29.961Z,43.76
2019-05-03T11:47:02.697Z,43.82
2019-05-03T11:49:35.610Z,43.93
2019-05-03T11:52:08.864Z,43.97
2019-05-03T11:54:41.894Z,44.12
2019-05-03T11:57:21.456Z,44.23
2019-05-03T11:59:54.827Z,44.32
2019-05-03T12:02:44.904Z,44.45
2019-05-03T12:05:24.497Z,44.47
2019-05-03T12:07:57.672Z,44.73
2019-05-03T12:10:46.996Z,44.85
2019-05-03T12:13:13.033Z,44.92
2019-05-03T12:15:46.008Z,44.96
2019-05-03T12:18:19.275Z,44.96
2019-05-03T12:20:52.601Z,44.90
2019-05-03T12:23:26.358Z,44.79
2019-05-03T12:26:00.610Z,44.74
2019-05-03T12:28:35.247Z,44.79
2019-05-03T12:31:08.685Z,44.68
2019-05-03T12:33:41.467Z,44.63
2019-05-03T12:36:15.531Z,44.71
2019-05-03T12:38:49.003Z,44.71
2019-05-03T12:41:21.586Z,44.65
2019-05-03T12:43:55.159Z,44.59
2019-05-03T12:46:27.948Z,44.57
2019-05-03T12:49:00.833Z,44.51
2019-05-03T12:51:34.533Z,44.58
2019-05-03T12:54:07.439Z,44.51
2019-05-03T12:56:39.920Z,44.49
2019-05-03T12:59:31.224Z,44.58
2019-05-03T13:02:15.370Z,44.65
2019-05-03T13:04:48.267Z,44.72
2019-05-03T13:07:32.089Z,44.80
2019-05-03T13:10:05.263Z,44.71
2019-05-03T13:12:49.742Z,44.68
2019-05-03T13:15:14.443Z,44.57
2019-05-03T13:17:46.906Z,44.47
2019-05-03T13:20:19.920Z,44.49
2019-05-03T13:22:52.846Z,44.53
2019-05-03T13:25:25.918Z,44.46
2019-05-03T13:27:58.555Z,44.38
2019-05-03T13:30:31.146Z,44.31
2019-05-03T13:33:05.794Z,44.29
2019-05-03T13:35:38.501Z,44.32
2019-05-03T13:38:16.897Z,44.32
2019-05-03T13:40:50.968Z,44.11
2019-05-03T13:43:23.467Z,44.09
2019-05-03T13:45:57.987Z,44.06
2019-05-03T13:48:41.659Z,43.95
2019-05-03T13:51:05.236Z,43.89
2019-05-03T13:53:38.303Z,43.72
2019-05-03T13:56:11.131Z,43.70
2019-05-03T13:58:44.604Z,43.50
2019-05-03T14:01:18.079Z,43.44
2019-05-03T14:03:50.929Z,43.29
2019-05-03T14:06:24.604Z,43.16
2019-05-03T14:08:57.444Z,43.09
2019-05-03T14:11:30.073Z,42.94
2019-05-03T14:14:04.708Z,43.06
2019-05-03T14:16:37.538Z,43.21
2019-05-03T14:19:15.483Z,43.20
2019-05-03T14:21:54.644Z,43.22
2019-05-03T14:24:27.059Z,43.18
2019-05-03T14:27:00.580Z,43.27
2019-05-03T14:29:34.753Z,43.36
2019-05-03T14:32:07.572Z,43.32
2019-05-03T14:34:40.038Z,43.34
2019-05-03T14:37:13.017Z,43.37
2019-05-03T14:39:46.912Z,43.45
2019-05-03T14:42:19.369Z,43.44
2019-05-03T14:44:51.849Z,43.38
2019-05-03T14:47:25.244Z,43.38
2019-05-03T14:49:57.961Z,43.27
2019-05-03T14:52:30.312Z,43.31
2019-05-03T14:55:10.378Z,43.41
2019-05-03T14:57:48.364Z,43.58
2019-05-03T15:00:34.600Z,43.70
2019-05-03T15:03:09.647Z,43.87
2019-05-03T15:05:43.718Z,44.05
2019-05-03T15:08:16.482Z,44.17
2019-05-03T15:10:49.752Z,44.18
2019-05-03T15:13:22.378Z,44.26
2019-05-03T15:15:55.441Z,44.35
2019-05-03T15:18:28.352Z,44.42
2019-05-03T15:21:02.163Z,44.39
2019-05-03T15:23:35.374Z,44.42
2019-05-03T15:26:08.422Z,44.42
2019-05-03T15:28:41.186Z,44.40
2019-05-03T15:31:13.601Z,44.43
2019-05-03T15:33:47.920Z,44.44
2019-05-03T15:36:21.340Z,44.45
2019-05-03T15:38:55.227Z,44.41
2019-05-03T15:41:28.405Z,44.42
2019-05-03T15:44:14.628Z,44.46
2019-05-03T15:46:52.047Z,44.44
2019-05-03T15:49:27.531Z,44.39
2019-05-03T15:51:59.635Z,44.36
2019-05-03T15:54:32.691Z,44.35
2019-05-03T15:57:05.432Z,44.35
2019-05-03T15:59:37.945Z,44.37
2019-05-03T16:02:10.826Z,44.46
2019-05-03T16:04:44.804Z,44.55
2019-05-03T16:07:17.767Z,44.60
2019-05-03T16:09:50.516Z,44.83
2019-05-03T16:12:23.126Z,44.91
2019-05-03T16:14:56.015Z,45.00
2019-05-03T16:17:29.310Z,45.08
2019-05-03T16:20:02.272Z,45.01
2019-05-03T16:22:34.832Z,45.06
2019-05-03T16:25:10.252Z,45.09
2019-05-03T16:28:01.634Z,45.09
2019-05-03T16:30:48.671Z,45.15
2019-05-03T16:33:27.269Z,45.20
2019-05-03T16:35:55.787Z,45.28
2019-05-03T16:38:28.335Z,45.32
2019-05-03T16:41:01.191Z,45.31
2019-05-03T16:43:34.861Z,45.32
2019-05-03T16:46:07.569Z,45.38
2019-05-03T16:48:40.163Z,45.36
2019-05-03T16:51:15.181Z,45.58
2019-05-03T16:53:47.506Z,45.58
2019-05-03T16:56:20.152Z,45.60
2019-05-03T16:58:52.859Z,45.60
2019-05-03T17:01:25.263Z,45.65
2019-05-03T17:04:20.556Z,45.64
2019-05-03T17:07:05.729Z,45.61
2019-05-03T17:09:51.370Z,45.59
2019-05-03T17:12:27.439Z,45.62
2019-05-03T17:15:00.166Z,45.63
2019-05-03T17:17:34.487Z,45.62
2019-05-03T17:20:10.738Z,45.60
2019-05-03T17:22:45.032Z,45.64
2019-05-03T17:25:20.910Z,45.65
2019-05-03T17:27:54.302Z,45.69
2019-05-03T17:30:33.798Z,45.66
2019-05-03T17:33:01.291Z,45.69
2019-05-03T17:35:34.634Z,45.63
2019-05-03T17:38:07.377Z,45.64
2019-05-03T17:41:10.928Z,45.64
2019-05-03T17:43:48.272Z,45.66
2019-05-03T17:46:20.745Z,45.75
2019-05-03T17:48:54.742Z,45.77
2019-05-03T17:51:45.611Z,45.76
2019-05-03T17:54:35.725Z,45.71
2019-05-03T17:57:20.579Z,45.63
2019-05-03T17:59:58.562Z,45.55
2019-05-03T18:02:38.790Z,45.53
2019-05-03T18:05:19.343Z,45.53
2019-05-03T18:08:26.158Z,45.51
2019-05-03T18:11:06.321Z,45.49
2019-05-03T18:13:39.130Z,45.45
2019-05-03T18:16:11.748Z,45.43
2019-05-03T18:18:45.444Z,45.39
2019-05-03T18:21:18.357Z,45.43
2019-05-03T18:23:50.898Z,45.44
2019-05-03T18:26:25.550Z,45.48
2019-05-03T18:29:02.111Z,45.50
2019-05-03T18:31:35.070Z,45.46
2019-05-03T18:34:19.091Z,45.46
2019-05-03T18:36:45.032Z,45.46
2019-05-03T18:39:17.715Z,45.47
2019-05-03T18:41:50.685Z,45.53
2019-05-03T18:44:39.191Z,45.57
2019-05-03T18:47:16.129Z,45.61
2019-05-03T18:49:48.895Z,45.60
2019-05-03T18:52:21.922Z,45.55
2019-05-03T18:54:55.212Z,45.52
2019-05-03T18:57:27.994Z,45.52
2019-05-03T19:00:00.819Z,45.54
2019-05-03T19:02:33.627Z,45.53
2019-05-03T19:05:08.078Z,45.50
2019-05-03T19:07:54.624Z,45.42
2019-05-03T19:10:33.227Z,45.39
2019-05-03T19:13:19.716Z,45.35
2019-05-03T19:15:52.579Z,45.34
2019-05-03T19:18:36.290Z,45.33
2019-05-03T19:21:09.199Z,45.32
2019-05-03T19:23:44.671Z,45.35
2019-05-03T19:26:17.192Z,45.37
2019-05-03T19:28:49.987Z,45.40
2019-05-03T19:31:25.003Z,45.45
2019-05-03T19:33:57.480Z,45.43
2019-05-03T19:36:30.019Z,45.42
2019-05-03T19:39:02.466Z,45.43
2019-05-03T19:41:35.488Z,45.45
2019-05-03T19:44:08.943Z,45.47
2019-05-03T19:46:42.134Z,45.44
2019-05-03T19:49:14.552Z,45.41
2019-05-03T19:51:47.122Z,45.36
2019-05-03T19:54:19.900Z,45.33
2019-05-03T19:56:52.257Z,45.30
2019-05-03T19:59:41.969Z,45.28
2019-05-03T20:02:27.766Z,45.26
2019-05-03T20:05:18.931Z,45.29
2019-05-03T20:08:22.294Z,45.35
2019-05-03T20:11:14.884Z,45.35
2019-05-03T20:13:48.812Z,45.35
2019-05-03T20:16:21.505Z,45.34
2019-05-03T20:18:55.564Z,45.36
2019-05-03T20:21:28.649Z,45.38
2019-05-03T20:24:02.434Z,45.39
2019-05-03T20:26:35.367Z,45.40
2019-05-03T20:29:07.895Z,45.40
2019-05-03T20:31:40.290Z,45.40
2019-05-03T20:34:12.756Z,45.47
2019-05-03T20:36:45.433Z,45.46
2019-05-03T20:39:18.340Z,45.48
2019-05-03T20:41:50.818Z,45.45
2019-05-03T20:44:42.265Z,45.45
2019-05-03T20:47:19.626Z,45.51
2019-05-03T20:50:09.508Z,45.54
2019-05-03T20:52:41.913Z,45.62
2019-05-03T20:55:15.732Z,45.69
2019-05-03T20:57:48.552Z,45.75
2019-05-03T21:00:25.628Z,45.83
2019-05-03T21:02:58.159Z,45.86
2019-05-03T21:05:33.161Z,45.91
2019-05-03T21:08:06.749Z,45.94
2019-05-03T21:10:39.325Z,45.97
2019-05-03T21:13:11.881Z,45.95
2019-05-03T21:16:06.102Z,45.91
2019-05-03T21:18:51.435Z,45.83
2019-05-03T21:21:45.656Z,45.83
2019-05-03T21:24:35.566Z,45.85
2019-05-03T21:27:08.300Z,45.87
2019-05-03T21:29:52.084Z,45.86
2019-05-03T21:32:25.218Z,45.90
2019-05-03T21:34:57.730Z,45.88
2019-05-03T21:37:30.489Z,45.88
2019-05-03T21:40:05.034Z,45.87
2019-05-03T21:42:37.756Z,45.83
2019-05-03T21:45:11.956Z,45.81
2019-05-03T21:48:09.922Z,45.83
2019-05-03T21:50:44.615Z,45.84
2019-05-03T21:53:21.749Z,45.82
2019-05-03T21:55:54.173Z,45.79
2019-05-03T21:58:26.652Z,45.72
2019-05-03T22:01:05.065Z,45.66
2019-05-03T22:03:37.869Z,45.60
2019-05-03T22:06:10.328Z,45.52
2019-05-03T22:08:45.351Z,45.50
2019-05-03T22:11:17.365Z,45.44
2019-05-03T22:13:51.737Z,45.40
2019-05-03T22:16:41.187Z,45.41
2019-05-03T22:19:16.349Z,45.41
2019-05-03T22:21:55.277Z,45.40
2019-05-03T22:24:33.703Z,45.39
2019-05-03T22:27:15.358Z,45.37
2019-05-03T22:29:47.989Z,45.35
2019-05-03T22:32:20.389Z,45.33
2019-05-03T22:34:52.888Z,45.30
2019-05-03T22:37:25.373Z,45.32
2019-05-03T22:39:57.946Z,45.29
2019-05-03T22:42:30.393Z,45.29
2019-05-03T22:45:04.671Z,45.25
2019-05-03T22:47:37.916Z,45.22
2019-05-03T22:50:10.641Z,45.16
2019-05-03T22:52:42.980Z,45.14
2019-05-03T22:55:16.665Z,45.12
2019-05-03T22:57:49.429Z,45.11
2019-05-03T23:00:22.477Z,45.11
2019-05-03T23:02:54.912Z,45.14
2019-05-03T23:05:27.539Z,45.17
2019-05-03T23:08:00.210Z,45.18
2019-05-03T23:10:34.772Z,45.19
2019-05-03T23:13:07.404Z,45.18
2019-05-03T23:15:39.913Z,45.20
2019-05-03T23:18:12.473Z,45.21
2019-05-03T23:20:55.549Z,45.25
2019-05-03T23:23:45.573Z,45.26
2019-05-03T23:26:18.246Z,45.28
2019-05-03T23:28:50.686Z,45.28
2019-05-03T23:31:25.108Z,45.30
2019-05-03T23:33:58.000Z,45.28
2019-05-03T23:36:33.463Z,45.29
2019-05-03T23:39:05.323Z,45.27
2019-05-03T23:41:37.589Z,45.25
2019-05-03T23:44:10.163Z,45.25
2019-05-03T23:46:54.582Z,45.26
2019-05-03T23:49:27.334Z,45.26
2019-05-03T23:52:04.479Z,45.27
2019-05-03T23:54:37.092Z,45.22
2019-05-03T23:57:10.064Z,45.19
2019-05-03T23:59:44.859Z,45.16
